New London, Pennsylvania
Current Conditions -  °F | °C
As of 10:55 PM on Thursday 18 Dec 2014 (Local Time) from KMQS Reporting Station
Overcast Overcast  
Wind Chill: 27°   Ceiling: 3000
Heat Index: 36°   Visibility: 10mi
Dew Point: 28°   Wind: 13mph
Humidity: 75%   Direction: 310°NW
Pressure: 30.04"   Gusts: NA
Location:  39.78°N, 75.87°W
Report Text: KMQS 190355Z AUTO 31011KT 10SM OVC030 02/M02 A3004 RMK AO2
Loading
Personal Weather Stations






























Interactive Weather Map New forecast layout! Learn more

10-Day Weather Forecast

Advertisements
Track Severe Weather on mobile